sensor_id;sensor_type;location;lat;lon;timestamp;pressure;altitude;pressure_sealevel;temperature;humidity
38852;BME280;24605;50.092;9.182;2023-03-24T00:02:19;96921.81;;;11.09;100.00
38852;BME280;24605;50.092;9.182;2023-03-24T00:04:47;96959.59;;;11.28;100.00
38852;BME280;24605;50.092;9.182;2023-03-24T00:07:16;96949.50;;;11.32;100.00
38852;BME280;24605;50.092;9.182;2023-03-24T00:09:44;96945.25;;;11.24;100.00
38852;BME280;24605;50.092;9.182;2023-03-24T00:12:13;96946.66;;;11.20;100.00
38852;BME280;24605;50.092;9.182;2023-03-24T00:14:43;96923.38;;;10.97;100.00
38852;BME280;24605;50.092;9.182;2023-03-24T00:17:11;96939.78;;;11.12;100.00
38852;BME280;24605;50.092;9.182;2023-03-24T00:19:38;96937.75;;;11.08;100.00
38852;BME280;24605;50.092;9.182;2023-03-24T00:22:06;96926.22;;;11.02;100.00
38852;BME280;24605;50.092;9.182;2023-03-24T00:24:38;96934.13;;;11.09;100.00
38852;BME280;24605;50.092;9.182;2023-03-24T00:27:05;96936.56;;;11.10;100.00
38852;BME280;24605;50.092;9.182;2023-03-24T00:29:31;96941.59;;;11.12;100.00
38852;BME280;24605;50.092;9.182;2023-03-24T00:32:00;96926.63;;;10.99;100.00
38852;BME280;24605;50.092;9.182;2023-03-24T00:34:27;96928.25;;;11.07;100.00
38852;BME280;24605;50.092;9.182;2023-03-24T00:36:53;96930.84;;;10.93;100.00
38852;BME280;24605;50.092;9.182;2023-03-24T00:39:21;96927.66;;;11.05;100.00
38852;BME280;24605;50.092;9.182;2023-03-24T00:41:48;96928.44;;;10.98;100.00
38852;BME280;24605;50.092;9.182;2023-03-24T00:44:15;96912.47;;;10.87;100.00
38852;BME280;24605;50.092;9.182;2023-03-24T00:46:43;96924.81;;;10.93;100.00
38852;BME280;24605;50.092;9.182;2023-03-24T00:49:10;96910.66;;;10.94;100.00
38852;BME280;24605;50.092;9.182;2023-03-24T00:51:39;96911.84;;;10.85;100.00
38852;BME280;24605;50.092;9.182;2023-03-24T00:54:08;96901.78;;;10.88;100.00
38852;BME280;24605;50.092;9.182;2023-03-24T00:56:37;96898.50;;;10.73;100.00
38852;BME280;24605;50.092;9.182;2023-03-24T00:59:05;96878.75;;;10.77;100.00
38852;BME280;24605;50.092;9.182;2023-03-24T01:01:34;96886.22;;;10.87;100.00
38852;BME280;24605;50.092;9.182;2023-03-24T01:04:02;96895.16;;;10.99;100.00
38852;BME280;24605;50.092;9.182;2023-03-24T01:06:30;96883.03;;;10.91;100.00
38852;BME280;24605;50.092;9.182;2023-03-24T01:08:56;96884.44;;;10.94;100.00
38852;BME280;24605;50.092;9.182;2023-03-24T01:11:24;96875.13;;;10.85;100.00
38852;BME280;24605;50.092;9.182;2023-03-24T01:13:54;96861.03;;;10.92;100.00
38852;BME280;24605;50.092;9.182;2023-03-24T01:16:20;96861.44;;;10.82;100.00
38852;BME280;24605;50.092;9.182;2023-03-24T01:18:50;96857.59;;;10.85;100.00
38852;BME280;24605;50.092;9.182;2023-03-24T01:21:16;96839.00;;;10.80;100.00
38852;BME280;24605;50.092;9.182;2023-03-24T01:23:43;96827.91;;;10.71;100.00
38852;BME280;24605;50.092;9.182;2023-03-24T01:26:10;96838.19;;;10.66;100.00
38852;BME280;24605;50.092;9.182;2023-03-24T01:28:37;96828.53;;;10.73;100.00
38852;BME280;24605;50.092;9.182;2023-03-24T01:31:07;96828.31;;;10.61;100.00
38852;BME280;24605;50.092;9.182;2023-03-24T01:33:36;96799.84;;;10.52;100.00
38852;BME280;24605;50.092;9.182;2023-03-24T01:36:03;96820.00;;;10.51;100.00
38852;BME280;24605;50.092;9.182;2023-03-24T01:38:30;96812.97;;;10.58;100.00
38852;BME280;24605;50.092;9.182;2023-03-24T01:40:57;96800.41;;;10.47;100.00
38852;BME280;24605;50.092;9.182;2023-03-24T01:43:25;96807.50;;;10.53;100.00
38852;BME280;24605;50.092;9.182;2023-03-24T01:46:00;96797.19;;;10.45;100.00
38852;BME280;24605;50.092;9.182;2023-03-24T01:48:32;96789.53;;;10.43;100.00
38852;BME280;24605;50.092;9.182;2023-03-24T01:51:04;96780.72;;;10.58;100.00
38852;BME280;24605;50.092;9.182;2023-03-24T01:53:33;96785.34;;;10.56;100.00
38852;BME280;24605;50.092;9.182;2023-03-24T01:56:02;96780.31;;;10.61;100.00
38852;BME280;24605;50.092;9.182;2023-03-24T01:58:32;96790.16;;;10.59;100.00
38852;BME280;24605;50.092;9.182;2023-03-24T02:01:02;96781.25;;;10.40;100.00
38852;BME280;24605;50.092;9.182;2023-03-24T02:03:32;96783.69;;;10.48;100.00
38852;BME280;24605;50.092;9.182;2023-03-24T02:06:03;96743.78;;;10.39;100.00
38852;BME280;24605;50.092;9.182;2023-03-24T02:08:33;96773.84;;;10.57;100.00
38852;BME280;24605;50.092;9.182;2023-03-24T02:11:02;96771.84;;;10.65;100.00
38852;BME280;24605;50.092;9.182;2023-03-24T02:13:28;96765.78;;;10.58;100.00
38852;BME280;24605;50.092;9.182;2023-03-24T02:16:12;96764.16;;;10.50;100.00
38852;BME280;24605;50.092;9.182;2023-03-24T02:18:46;96750.63;;;10.47;100.00
38852;BME280;24605;50.092;9.182;2023-03-24T02:25:09;96764.16;;;10.57;100.00
38852;BME280;24605;50.092;9.182;2023-03-24T02:30:51;96761.56;;;10.64;100.00
38852;BME280;24605;50.092;9.182;2023-03-24T02:36:54;96763.78;;;10.60;100.00
38852;BME280;24605;50.092;9.182;2023-03-24T02:39:42;96765.00;;;10.64;100.00
38852;BME280;24605;50.092;9.182;2023-03-24T02:42:20;96754.50;;;10.51;100.00
38852;BME280;24605;50.092;9.182;2023-03-24T02:44:51;96759.94;;;10.56;100.00
38852;BME280;24605;50.092;9.182;2023-03-24T02:47:24;96742.00;;;10.60;100.00
38852;BME280;24605;50.092;9.182;2023-03-24T02:50:00;96709.94;;;10.51;100.00
38852;BME280;24605;50.092;9.182;2023-03-24T02:52:34;96735.97;;;10.66;100.00
38852;BME280;24605;50.092;9.182;2023-03-24T02:55:08;96728.28;;;10.64;100.00
38852;BME280;24605;50.092;9.182;2023-03-24T02:57:41;96723.84;;;10.58;100.00
38852;BME280;24605;50.092;9.182;2023-03-24T03:00:13;96724.25;;;10.62;100.00
38852;BME280;24605;50.092;9.182;2023-03-24T03:02:45;96725.25;;;10.54;100.00
38852;BME280;24605;50.092;9.182;2023-03-24T03:05:16;96701.66;;;10.54;100.00
38852;BME280;24605;50.092;9.182;2023-03-24T03:07:45;96713.19;;;10.73;100.00
38852;BME280;24605;50.092;9.182;2023-03-24T03:10:20;96700.88;;;10.67;100.00
38852;BME280;24605;50.092;9.182;2023-03-24T03:12:52;96703.91;;;10.77;100.00
38852;BME280;24605;50.092;9.182;2023-03-24T03:15:22;96688.19;;;10.64;100.00
38852;BME280;24605;50.092;9.182;2023-03-24T03:17:52;96691.81;;;10.76;100.00
38852;BME280;24605;50.092;9.182;2023-03-24T03:20:23;96690.19;;;10.89;100.00
38852;BME280;24605;50.092;9.182;2023-03-24T03:22:58;96689.38;;;10.95;100.00
38852;BME280;24605;50.092;9.182;2023-03-24T03:25:29;96648.44;;;10.67;100.00
38852;BME280;24605;50.092;9.182;2023-03-24T03:27:59;96702.91;;;10.98;100.00
38852;BME280;24605;50.092;9.182;2023-03-24T03:30:32;96694.84;;;10.87;100.00
38852;BME280;24605;50.092;9.182;2023-03-24T03:33:04;96709.78;;;10.93;100.00
38852;BME280;24605;50.092;9.182;2023-03-24T03:35:34;96706.94;;;10.94;100.00
38852;BME280;24605;50.092;9.182;2023-03-24T03:38:09;96702.31;;;10.83;100.00
38852;BME280;24605;50.092;9.182;2023-03-24T03:40:43;96669.25;;;10.75;100.00
38852;BME280;24605;50.092;9.182;2023-03-24T03:43:15;96698.06;;;10.95;100.00
38852;BME280;24605;50.092;9.182;2023-03-24T03:45:42;96690.41;;;11.01;100.00
38852;BME280;24605;50.092;9.182;2023-03-24T03:48:09;96694.22;;;11.11;100.00
38852;BME280;24605;50.092;9.182;2023-03-24T03:50:36;96691.00;;;11.09;100.00
38852;BME280;24605;50.092;9.182;2023-03-24T03:53:03;96686.75;;;11.15;100.00
38852;BME280;24605;50.092;9.182;2023-03-24T03:55:30;96688.97;;;11.18;100.00
38852;BME280;24605;50.092;9.182;2023-03-24T03:58:01;96675.25;;;11.16;100.00
38852;BME280;24605;50.092;9.182;2023-03-24T04:00:29;96685.72;;;11.23;100.00
38852;BME280;24605;50.092;9.182;2023-03-24T04:03:15;96688.56;;;11.28;100.00
38852;BME280;24605;50.092;9.182;2023-03-24T04:05:50;96687.53;;;11.36;100.00
38852;BME280;24605;50.092;9.182;2023-03-24T04:08:23;96684.09;;;11.35;100.00
38852;BME280;24605;50.092;9.182;2023-03-24T04:11:09;96692.59;;;11.31;100.00
38852;BME280;24605;50.092;9.182;2023-03-24T04:13:48;96693.16;;;11.39;100.00
38852;BME280;24605;50.092;9.182;2023-03-24T04:16:26;96700.03;;;11.40;100.00
38852;BME280;24605;50.092;9.182;2023-03-24T04:19:09;96698.63;;;11.24;100.00
38852;BME280;24605;50.092;9.182;2023-03-24T04:21:48;96708.53;;;11.29;100.00
38852;BME280;24605;50.092;9.182;2023-03-24T04:24:23;96705.69;;;11.37;100.00
38852;BME280;24605;50.092;9.182;2023-03-24T04:27:03;96712.75;;;11.43;100.00
38852;BME280;24605;50.092;9.182;2023-03-24T04:29:37;96710.13;;;11.43;100.00
38852;BME280;24605;50.092;9.182;2023-03-24T04:32:13;96716.78;;;11.53;100.00
38852;BME280;24605;50.092;9.182;2023-03-24T04:34:45;96713.94;;;11.54;100.00
38852;BME280;24605;50.092;9.182;2023-03-24T04:37:17;96710.69;;;11.59;100.00
38852;BME280;24605;50.092;9.182;2023-03-24T04:39:48;96719.13;;;11.74;100.00
38852;BME280;24605;50.092;9.182;2023-03-24T04:42:18;96718.28;;;11.87;100.00
38852;BME280;24605;50.092;9.182;2023-03-24T04:44:48;96717.66;;;11.92;100.00
38852;BME280;24605;50.092;9.182;2023-03-24T04:47:16;96715.81;;;11.99;100.00
38852;BME280;24605;50.092;9.182;2023-03-24T04:49:44;96705.09;;;12.07;100.00
38852;BME280;24605;50.092;9.182;2023-03-24T04:52:11;96715.78;;;12.13;100.00
38852;BME280;24605;50.092;9.182;2023-03-24T04:54:37;96719.66;;;12.10;100.00
38852;BME280;24605;50.092;9.182;2023-03-24T04:57:04;96722.13;;;11.98;100.00
38852;BME280;24605;50.092;9.182;2023-03-24T04:59:31;96725.16;;;11.82;100.00
38852;BME280;24605;50.092;9.182;2023-03-24T05:02:00;96724.19;;;11.69;100.00
38852;BME280;24605;50.092;9.182;2023-03-24T05:04:27;96732.09;;;11.63;100.00
38852;BME280;24605;50.092;9.182;2023-03-24T05:06:55;96723.44;;;11.49;100.00
38852;BME280;24605;50.092;9.182;2023-03-24T05:09:23;96729.47;;;11.56;100.00
38852;BME280;24605;50.092;9.182;2023-03-24T05:11:50;96733.53;;;11.52;100.00
38852;BME280;24605;50.092;9.182;2023-03-24T05:14:17;96735.75;;;11.41;100.00
38852;BME280;24605;50.092;9.182;2023-03-24T05:16:44;96741.22;;;11.40;100.00
38852;BME280;24605;50.092;9.182;2023-03-24T05:19:12;96721.06;;;11.20;100.00
38852;BME280;24605;50.092;9.182;2023-03-24T05:21:38;96741.81;;;11.22;100.00
38852;BME280;24605;50.092;9.182;2023-03-24T05:24:05;96727.31;;;11.19;100.00
38852;BME280;24605;50.092;9.182;2023-03-24T05:26:32;96723.28;;;11.10;100.00
38852;BME280;24605;50.092;9.182;2023-03-24T05:28:58;96719.47;;;11.06;100.00
38852;BME280;24605;50.092;9.182;2023-03-24T05:31:25;96701.72;;;10.94;100.00
38852;BME280;24605;50.092;9.182;2023-03-24T05:33:51;96719.47;;;11.06;100.00
38852;BME280;24605;50.092;9.182;2023-03-24T05:36:19;96707.75;;;10.95;100.00
38852;BME280;24605;50.092;9.182;2023-03-24T05:38:46;96706.97;;;11.01;100.00
38852;BME280;24605;50.092;9.182;2023-03-24T05:41:12;96708.34;;;10.97;100.00
38852;BME280;24605;50.092;9.182;2023-03-24T05:43:39;96688.81;;;10.86;100.00
38852;BME280;24605;50.092;9.182;2023-03-24T05:46:06;96699.09;;;10.94;100.00
38852;BME280;24605;50.092;9.182;2023-03-24T05:48:32;96696.84;;;10.85;100.00
38852;BME280;24605;50.092;9.182;2023-03-24T05:50:59;96696.44;;;10.88;100.00
38852;BME280;24605;50.092;9.182;2023-03-24T05:53:27;96706.94;;;10.88;100.00
38852;BME280;24605;50.092;9.182;2023-03-24T05:55:53;96714.81;;;10.88;100.00
38852;BME280;24605;50.092;9.182;2023-03-24T05:58:22;96735.78;;;10.88;100.00
38852;BME280;24605;50.092;9.182;2023-03-24T06:00:49;96738.81;;;10.78;100.00
38852;BME280;24605;50.092;9.182;2023-03-24T06:03:15;96767.03;;;10.89;100.00
38852;BME280;24605;50.092;9.182;2023-03-24T06:05:42;96766.63;;;10.86;100.00
38852;BME280;24605;50.092;9.182;2023-03-24T06:08:10;96768.47;;;10.85;100.00
38852;BME280;24605;50.092;9.182;2023-03-24T06:10:38;96772.88;;;10.85;100.00
38852;BME280;24605;50.092;9.182;2023-03-24T06:13:04;96766.44;;;10.87;100.00
38852;BME280;24605;50.092;9.182;2023-03-24T06:15:33;96754.53;;;10.78;100.00
38852;BME280;24605;50.092;9.182;2023-03-24T06:17:59;96760.19;;;10.81;100.00
38852;BME280;24605;50.092;9.182;2023-03-24T06:20:26;96767.25;;;10.88;100.00
38852;BME280;24605;50.092;9.182;2023-03-24T06:22:53;96763.22;;;10.85;100.00
38852;BME280;24605;50.092;9.182;2023-03-24T06:25:23;96760.78;;;10.90;100.00
38852;BME280;24605;50.092;9.182;2023-03-24T06:27:52;96765.63;;;10.87;100.00
38852;BME280;24605;50.092;9.182;2023-03-24T06:30:19;96763.00;;;10.87;100.00
38852;BME280;24605;50.092;9.182;2023-03-24T06:32:45;96744.03;;;10.85;100.00
38852;BME280;24605;50.092;9.182;2023-03-24T06:35:12;96779.56;;;11.01;100.00
38852;BME280;24605;50.092;9.182;2023-03-24T06:37:39;96780.38;;;11.01;100.00
38852;BME280;24605;50.092;9.182;2023-03-24T06:40:07;96777.16;;;10.99;100.00
38852;BME280;24605;50.092;9.182;2023-03-24T06:42:37;96760.19;;;10.88;100.00
38852;BME280;24605;50.092;9.182;2023-03-24T06:45:07;96773.94;;;11.04;100.00
38852;BME280;24605;50.092;9.182;2023-03-24T06:47:33;96768.25;;;11.07;100.00
38852;BME280;24605;50.092;9.182;2023-03-24T06:50:00;96759.41;;;11.21;100.00
38852;BME280;24605;50.092;9.182;2023-03-24T06:52:27;96765.03;;;11.38;100.00
38852;BME280;24605;50.092;9.182;2023-03-24T06:54:53;96772.28;;;11.43;100.00
38852;BME280;24605;50.092;9.182;2023-03-24T06:57:20;96775.13;;;11.48;100.00
38852;BME280;24605;50.092;9.182;2023-03-24T06:59:47;96777.53;;;11.50;100.00
38852;BME280;24605;50.092;9.182;2023-03-24T07:02:15;96766.22;;;11.56;100.00
38852;BME280;24605;50.092;9.182;2023-03-24T07:04:42;96712.38;;;11.20;100.00
38852;BME280;24605;50.092;9.182;2023-03-24T07:07:10;96767.03;;;11.56;100.00
38852;BME280;24605;50.092;9.182;2023-03-24T07:09:36;96758.34;;;11.56;100.00
38852;BME280;24605;50.092;9.182;2023-03-24T07:12:04;96784.81;;;11.61;100.00
38852;BME280;24605;50.092;9.182;2023-03-24T07:14:30;96781.78;;;11.57;100.00
38852;BME280;24605;50.092;9.182;2023-03-24T07:16:57;96779.34;;;11.56;100.00
38852;BME280;24605;50.092;9.182;2023-03-24T07:19:25;96784.81;;;11.61;100.00
38852;BME280;24605;50.092;9.182;2023-03-24T07:21:52;96783.97;;;11.67;100.00
38852;BME280;24605;50.092;9.182;2023-03-24T07:24:18;96780.91;;;11.77;100.00
38852;BME280;24605;50.092;9.182;2023-03-24T07:26:45;96781.50;;;11.93;100.00
38852;BME280;24605;50.092;9.182;2023-03-24T07:29:11;96755.25;;;11.86;100.00
38852;BME280;24605;50.092;9.182;2023-03-24T07:31:38;96788.00;;;11.83;100.00
38852;BME280;24605;50.092;9.182;2023-03-24T07:34:05;96773.03;;;11.84;100.00
38852;BME280;24605;50.092;9.182;2023-03-24T07:36:32;96783.53;;;11.84;100.00
38852;BME280;24605;50.092;9.182;2023-03-24T07:38:59;96787.78;;;11.85;100.00
38852;BME280;24605;50.092;9.182;2023-03-24T07:41:26;96786.16;;;11.90;100.00
38852;BME280;24605;50.092;9.182;2023-03-24T07:43:53;96784.72;;;11.95;100.00
38852;BME280;24605;50.092;9.182;2023-03-24T07:46:20;96787.13;;;12.10;100.00
38852;BME280;24605;50.092;9.182;2023-03-24T07:48:46;96783.69;;;11.96;100.00
38852;BME280;24605;50.092;9.182;2023-03-24T07:51:12;96782.53;;;11.85;100.00
38852;BME280;24605;50.092;9.182;2023-03-24T07:53:40;96791.63;;;11.75;100.00
38852;BME280;24605;50.092;9.182;2023-03-24T07:56:09;96788.81;;;11.70;100.00
38852;BME280;24605;50.092;9.182;2023-03-24T07:58:36;96779.13;;;11.71;100.00
38852;BME280;24605;50.092;9.182;2023-03-24T08:01:05;96785.97;;;11.79;100.00
38852;BME280;24605;50.092;9.182;2023-03-24T08:03:31;96786.59;;;11.74;100.00
38852;BME280;24605;50.092;9.182;2023-03-24T08:05:58;96781.75;;;11.64;100.00
38852;BME280;24605;50.092;9.182;2023-03-24T08:08:25;96786.78;;;11.72;100.00
38852;BME280;24605;50.092;9.182;2023-03-24T08:10:53;96790.44;;;11.65;100.00
38852;BME280;24605;50.092;9.182;2023-03-24T08:13:19;96774.69;;;11.65;100.00
38852;BME280;24605;50.092;9.182;2023-03-24T08:15:45;96781.97;;;11.69;100.00
38852;BME280;24605;50.092;9.182;2023-03-24T08:18:12;96784.56;;;11.76;100.00
38852;BME280;24605;50.092;9.182;2023-03-24T08:20:38;96775.09;;;11.55;100.00
38852;BME280;24605;50.092;9.182;2023-03-24T08:23:05;96783.19;;;11.67;100.00
38852;BME280;24605;50.092;9.182;2023-03-24T08:25:33;96783.56;;;11.64;100.00
38852;BME280;24605;50.092;9.182;2023-03-24T08:28:01;96765.41;;;11.62;100.00
38852;BME280;24605;50.092;9.182;2023-03-24T08:30:29;96774.47;;;11.73;100.00
38852;BME280;24605;50.092;9.182;2023-03-24T08:32:57;96752.69;;;11.59;100.00
38852;BME280;24605;50.092;9.182;2023-03-24T08:35:26;96768.81;;;11.76;100.00
38852;BME280;24605;50.092;9.182;2023-03-24T08:37:53;96774.19;;;11.95;100.00
38852;BME280;24605;50.092;9.182;2023-03-24T08:40:21;96780.28;;;12.02;100.00
38852;BME280;24605;50.092;9.182;2023-03-24T08:42:49;96783.25;;;12.12;100.00
38852;BME280;24605;50.092;9.182;2023-03-24T08:45:18;96783.78;;;12.34;100.00
38852;BME280;24605;50.092;9.182;2023-03-24T08:47:46;96780.75;;;12.37;100.00
38852;BME280;24605;50.092;9.182;2023-03-24T08:50:13;96784.25;;;12.63;100.00
38852;BME280;24605;50.092;9.182;2023-03-24T08:52:40;96780.22;;;12.61;100.00
38852;BME280;24605;50.092;9.182;2023-03-24T08:55:07;96781.13;;;12.48;100.00
38852;BME280;24605;50.092;9.182;2023-03-24T08:57:34;96776.22;;;12.58;100.00
38852;BME280;24605;50.092;9.182;2023-03-24T09:00:01;96784.25;;;12.63;100.00
38852;BME280;24605;50.092;9.182;2023-03-24T09:02:35;96770.22;;;12.76;100.00
38852;BME280;24605;50.092;9.182;2023-03-24T09:05:02;96773.88;;;13.07;100.00
38852;BME280;24605;50.092;9.182;2023-03-24T09:07:28;96770.31;;;12.95;100.00
38852;BME280;24605;50.092;9.182;2023-03-24T09:09:55;96777.81;;;12.91;100.00
38852;BME280;24605;50.092;9.182;2023-03-24T09:12:21;96762.69;;;12.87;100.00
38852;BME280;24605;50.092;9.182;2023-03-24T09:14:48;96769.25;;;13.03;100.00
38852;BME280;24605;50.092;9.182;2023-03-24T09:17:16;96771.38;;;12.87;100.00
38852;BME280;24605;50.092;9.182;2023-03-24T09:19:44;96763.31;;;12.50;100.00
38852;BME280;24605;50.092;9.182;2023-03-24T09:22:11;96770.50;;;12.61;100.00
38852;BME280;24605;50.092;9.182;2023-03-24T09:24:38;96765.47;;;12.60;100.00
38852;BME280;24605;50.092;9.182;2023-03-24T09:27:04;96764.00;;;12.70;100.00
38852;BME280;24605;50.092;9.182;2023-03-24T09:29:31;96763.34;;;12.75;100.00
38852;BME280;24605;50.092;9.182;2023-03-24T09:31:57;96758.09;;;12.75;100.00
38852;BME280;24605;50.092;9.182;2023-03-24T09:34:24;96759.66;;;12.83;100.00
38852;BME280;24605;50.092;9.182;2023-03-24T09:36:52;96745.56;;;12.70;100.00
38852;BME280;24605;50.092;9.182;2023-03-24T09:39:18;96778.22;;;12.63;100.00
38852;BME280;24605;50.092;9.182;2023-03-24T09:41:45;96769.97;;;12.52;100.00
38852;BME280;24605;50.092;9.182;2023-03-24T09:44:21;96779.75;;;12.38;100.00
38852;BME280;24605;50.092;9.182;2023-03-24T09:46:51;96765.16;;;11.97;100.00
38852;BME280;24605;50.092;9.182;2023-03-24T09:49:22;96826.97;;;11.80;100.00
38852;BME280;24605;50.092;9.182;2023-03-24T09:51:52;96828.41;;;11.28;100.00
38852;BME280;24605;50.092;9.182;2023-03-24T09:54:25;96838.59;;;10.70;100.00
38852;BME280;24605;50.092;9.182;2023-03-24T09:56:56;96834.28;;;10.07;100.00
38852;BME280;24605;50.092;9.182;2023-03-24T09:59:29;96813.97;;;9.80;100.00
38852;BME280;24605;50.092;9.182;2023-03-24T10:01:58;96810.88;;;9.63;100.00
38852;BME280;24605;50.092;9.182;2023-03-24T10:04:26;96787.88;;;9.30;100.00
38852;BME280;24605;50.092;9.182;2023-03-24T10:06:59;96808.69;;;9.38;100.00
38852;BME280;24605;50.092;9.182;2023-03-24T10:09:33;96777.47;;;9.08;100.00
38852;BME280;24605;50.092;9.182;2023-03-24T10:12:10;96820.97;;;9.16;100.00
38852;BME280;24605;50.092;9.182;2023-03-24T10:14:54;96825.56;;;9.14;100.00
38852;BME280;24605;50.092;9.182;2023-03-24T10:17:29;96817.53;;;9.16;100.00
38852;BME280;24605;50.092;9.182;2023-03-24T10:20:02;96815.69;;;9.09;100.00
38852;BME280;24605;50.092;9.182;2023-03-24T10:22:35;96821.47;;;9.05;100.00
38852;BME280;24605;50.092;9.182;2023-03-24T10:25:10;96799.72;;;9.04;100.00
38852;BME280;24605;50.092;9.182;2023-03-24T10:27:42;96807.00;;;9.09;100.00
38852;BME280;24605;50.092;9.182;2023-03-24T10:30:15;96825.94;;;9.11;100.00
38852;BME280;24605;50.092;9.182;2023-03-24T10:32:43;96838.81;;;9.13;100.00
38852;BME280;24605;50.092;9.182;2023-03-24T10:35:15;96762.22;;;8.90;100.00
38852;BME280;24605;50.092;9.182;2023-03-24T10:37:44;96842.78;;;9.52;100.00
38852;BME280;24605;50.092;9.182;2023-03-24T10:40:14;96836.75;;;9.51;100.00
38852;BME280;24605;50.092;9.182;2023-03-24T10:42:44;96845.63;;;9.57;100.00
38852;BME280;24605;50.092;9.182;2023-03-24T10:45:15;96851.06;;;9.55;100.00
38852;BME280;24605;50.092;9.182;2023-03-24T10:47:46;96876.44;;;9.62;100.00
38852;BME280;24605;50.092;9.182;2023-03-24T10:50:14;96884.94;;;9.64;100.00
38852;BME280;24605;50.092;9.182;2023-03-24T10:52:41;96866.53;;;9.50;100.00
38852;BME280;24605;50.092;9.182;2023-03-24T10:55:15;96874.88;;;9.61;100.00
38852;BME280;24605;50.092;9.182;2023-03-24T10:57:44;96884.56;;;9.67;100.00
38852;BME280;24605;50.092;9.182;2023-03-24T11:00:16;96896.22;;;9.64;100.00
38852;BME280;24605;50.092;9.182;2023-03-24T11:02:53;96887.13;;;9.60;100.00
38852;BME280;24605;50.092;9.182;2023-03-24T11:05:21;96905.63;;;9.59;100.00
38852;BME280;24605;50.092;9.182;2023-03-24T11:07:56;96893.25;;;9.46;100.00
38852;BME280;24605;50.092;9.182;2023-03-24T11:10:25;96917.38;;;9.69;100.00
38852;BME280;24605;50.092;9.182;2023-03-24T11:12:59;96911.88;;;9.86;100.00
38852;BME280;24605;50.092;9.182;2023-03-24T11:15:30;96918.97;;;9.92;100.00
38852;BME280;24605;50.092;9.182;2023-03-24T11:17:58;96912.13;;;10.19;100.00
38852;BME280;24605;50.092;9.182;2023-03-24T11:20:29;96905.63;;;10.15;100.00
38852;BME280;24605;50.092;9.182;2023-03-24T11:22:58;96909.88;;;10.16;100.00
38852;BME280;24605;50.092;9.182;2023-03-24T11:25:28;96908.53;;;9.99;100.00
38852;BME280;24605;50.092;9.182;2023-03-24T11:27:58;96904.13;;;9.99;100.00
38852;BME280;24605;50.092;9.182;2023-03-24T11:30:27;96923.38;;;10.13;100.00
38852;BME280;24605;50.092;9.182;2023-03-24T11:32:57;96918.63;;;10.30;100.00
38852;BME280;24605;50.092;9.182;2023-03-24T11:35:24;96932.25;;;10.19;100.00
38852;BME280;24605;50.092;9.182;2023-03-24T11:37:50;96941.69;;;10.42;100.00
38852;BME280;24605;50.092;9.182;2023-03-24T11:40:21;96940.69;;;10.43;100.00
38852;BME280;24605;50.092;9.182;2023-03-24T11:42:54;96940.44;;;10.38;100.00
38852;BME280;24605;50.092;9.182;2023-03-24T11:45:26;96940.69;;;10.43;100.00
38852;BME280;24605;50.092;9.182;2023-03-24T11:47:55;96945.41;;;10.61;100.00
38852;BME280;24605;50.092;9.182;2023-03-24T11:50:26;96910.72;;;10.59;100.00
38852;BME280;24605;50.092;9.182;2023-03-24T11:52:57;96936.06;;;10.87;100.00
38852;BME280;24605;50.092;9.182;2023-03-24T11:55:33;96928.53;;;10.70;100.00
38852;BME280;24605;50.092;9.182;2023-03-24T11:58:08;96919.78;;;11.05;100.00
38852;BME280;24605;50.092;9.182;2023-03-24T12:00:39;96925.50;;;11.28;100.00
38852;BME280;24605;50.092;9.182;2023-03-24T12:06:29;96926.91;;;11.31;100.00
38852;BME280;24605;50.092;9.182;2023-03-24T12:09:05;96929.53;;;11.31;100.00
38852;BME280;24605;50.092;9.182;2023-03-24T12:11:47;96924.72;;;11.62;100.00
38852;BME280;24605;50.092;9.182;2023-03-24T12:14:24;96890.19;;;11.51;100.00
38852;BME280;24605;50.092;9.182;2023-03-24T12:16:59;96924.13;;;11.86;100.00
38852;BME280;24605;50.092;9.182;2023-03-24T12:22:44;96918.88;;;11.73;100.00
38852;BME280;24605;50.092;9.182;2023-03-24T12:25:37;96899.84;;;11.37;100.00
38852;BME280;24605;50.092;9.182;2023-03-24T12:28:15;96915.44;;;11.79;100.00
38852;BME280;24605;50.092;9.182;2023-03-24T12:30:54;96891.81;;;12.13;100.00
38852;BME280;24605;50.092;9.182;2023-03-24T12:33:36;96922.91;;;12.36;100.00
38852;BME280;24605;50.092;9.182;2023-03-24T12:36:18;96918.63;;;12.42;100.00
38852;BME280;24605;50.092;9.182;2023-03-24T12:38:58;96927.31;;;12.49;100.00
38852;BME280;24605;50.092;9.182;2023-03-24T12:41:45;96934.13;;;12.70;100.00
38852;BME280;24605;50.092;9.182;2023-03-24T12:44:34;96931.63;;;12.89;100.00
38852;BME280;24605;50.092;9.182;2023-03-24T12:47:17;96929.16;;;12.94;100.00
38852;BME280;24605;50.092;9.182;2023-03-24T12:50:02;96932.53;;;13.14;100.00
38852;BME280;24605;50.092;9.182;2023-03-24T12:52:42;96926.09;;;13.74;100.00
38852;BME280;24605;50.092;9.182;2023-03-24T12:55:15;96938.44;;;13.48;100.00
38852;BME280;24605;50.092;9.182;2023-03-24T12:57:46;96942.53;;;13.38;100.00
38852;BME280;24605;50.092;9.182;2023-03-24T13:00:18;96944.31;;;13.37;100.00
38852;BME280;24605;50.092;9.182;2023-03-24T13:02:51;96934.03;;;13.36;100.00
38852;BME280;24605;50.092;9.182;2023-03-24T13:05:21;96925.47;;;13.08;100.00
38852;BME280;24605;50.092;9.182;2023-03-24T13:07:54;96924.00;;;13.19;100.00
38852;BME280;24605;50.092;9.182;2023-03-24T13:10:25;96920.63;;;13.37;100.00
38852;BME280;24605;50.092;9.182;2023-03-24T13:12:56;96923.50;;;13.42;100.00
38852;BME280;24605;50.092;9.182;2023-03-24T13:15:29;96918.31;;;13.61;100.00
38852;BME280;24605;50.092;9.182;2023-03-24T13:18:05;96923.84;;;13.53;100.00
38852;BME280;24605;50.092;9.182;2023-03-24T13:20:41;96915.22;;;13.32;100.00
38852;BME280;24605;50.092;9.182;2023-03-24T13:23:24;96915.88;;;12.82;100.00